sensor_id;sensor_type;location;lat;lon;timestamp;P1;durP1;ratioP1;P2;durP2;ratioP2
64871;SDS011;51351;51.450;6.614;2024-03-23T00:55:27;5.35;;;3.78;;
64871;SDS011;51351;51.450;6.614;2024-03-23T00:57:52;9.80;;;3.70;;
64871;SDS011;51351;51.450;6.614;2024-03-23T01:00:19;8.27;;;4.45;;
64871;SDS011;51351;51.450;6.614;2024-03-23T01:02:44;5.47;;;2.45;;
64871;SDS011;51351;51.450;6.614;2024-03-23T01:05:10;6.28;;;3.13;;
64871;SDS011;51351;51.450;6.614;2024-03-23T01:07:35;5.90;;;1.80;;
64871;SDS011;51351;51.450;6.614;2024-03-23T01:10:01;5.57;;;3.05;;
64871;SDS011;51351;51.450;6.614;2024-03-23T01:12:26;5.32;;;2.80;;
64871;SDS011;51351;51.450;6.614;2024-03-23T01:14:51;4.00;;;2.75;;
64871;SDS011;51351;51.450;6.614;2024-03-23T01:17:17;7.32;;;4.03;;
64871;SDS011;51351;51.450;6.614;2024-03-23T01:19:43;6.50;;;1.23;;
64871;SDS011;51351;51.450;6.614;2024-03-23T01:22:08;7.32;;;1.80;;
64871;SDS011;51351;51.450;6.614;2024-03-23T01:24:35;4.68;;;2.90;;
64871;SDS011;51351;51.450;6.614;2024-03-23T01:27:00;4.80;;;3.13;;
64871;SDS011;51351;51.450;6.614;2024-03-23T01:29:26;4.93;;;2.80;;
64871;SDS011;51351;51.450;6.614;2024-03-23T01:31:52;6.20;;;3.80;;
64871;SDS011;51351;51.450;6.614;2024-03-23T01:34:17;5.47;;;1.90;;
64871;SDS011;51351;51.450;6.614;2024-03-23T01:36:43;5.65;;;1.38;;
64871;SDS011;51351;51.450;6.614;2024-03-23T01:39:08;5.15;;;2.60;;
64871;SDS011;51351;51.450;6.614;2024-03-23T01:41:37;9.07;;;2.78;;
64871;SDS011;51351;51.450;6.614;2024-03-23T01:44:13;3.75;;;2.05;;
64871;SDS011;51351;51.450;6.614;2024-03-23T01:46:40;6.35;;;3.63;;
64871;SDS011;51351;51.450;6.614;2024-03-23T01:49:06;5.80;;;2.58;;
64871;SDS011;51351;51.450;6.614;2024-03-23T01:51:32;4.40;;;2.42;;
64871;SDS011;51351;51.450;6.614;2024-03-23T01:53:58;6.50;;;2.58;;
64871;SDS011;51351;51.450;6.614;2024-03-23T01:56:29;4.85;;;2.35;;
64871;SDS011;51351;51.450;6.614;2024-03-23T01:58:55;7.97;;;3.13;;
64871;SDS011;51351;51.450;6.614;2024-03-23T02:01:21;4.95;;;2.25;;
64871;SDS011;51351;51.450;6.614;2024-03-23T02:03:46;6.00;;;3.20;;
64871;SDS011;51351;51.450;6.614;2024-03-23T02:06:12;3.40;;;2.83;;
64871;SDS011;51351;51.450;6.614;2024-03-23T02:08:38;9.38;;;2.95;;
64871;SDS011;51351;51.450;6.614;2024-03-23T02:11:04;4.95;;;2.10;;
64871;SDS011;51351;51.450;6.614;2024-03-23T02:13:29;2.38;;;2.15;;
64871;SDS011;51351;51.450;6.614;2024-03-23T02:15:56;6.07;;;2.13;;
64871;SDS011;51351;51.450;6.614;2024-03-23T02:18:22;6.15;;;2.22;;
64871;SDS011;51351;51.450;6.614;2024-03-23T02:20:48;3.28;;;1.92;;
64871;SDS011;51351;51.450;6.614;2024-03-23T02:23:14;4.20;;;2.08;;
64871;SDS011;51351;51.450;6.614;2024-03-23T02:25:41;8.30;;;3.20;;
64871;SDS011;51351;51.450;6.614;2024-03-23T02:28:15;5.25;;;2.83;;
64871;SDS011;51351;51.450;6.614;2024-03-23T02:30:42;8.38;;;2.78;;
64871;SDS011;51351;51.450;6.614;2024-03-23T02:33:08;4.30;;;3.35;;
64871;SDS011;51351;51.450;6.614;2024-03-23T02:35:34;5.15;;;1.20;;
64871;SDS011;51351;51.450;6.614;2024-03-23T02:37:59;7.93;;;3.22;;
64871;SDS011;51351;51.450;6.614;2024-03-23T02:40:25;6.43;;;3.47;;
64871;SDS011;51351;51.450;6.614;2024-03-23T02:42:51;3.22;;;1.77;;
64871;SDS011;51351;51.450;6.614;2024-03-23T02:45:19;4.00;;;2.10;;
64871;SDS011;51351;51.450;6.614;2024-03-23T02:52:35;7.22;;;3.22;;
64871;SDS011;51351;51.450;6.614;2024-03-23T02:55:01;11.93;;;3.50;;
64871;SDS011;51351;51.450;6.614;2024-03-23T02:57:27;5.68;;;3.42;;
64871;SDS011;51351;51.450;6.614;2024-03-23T02:59:53;4.25;;;2.97;;
64871;SDS011;51351;51.450;6.614;2024-03-23T03:02:18;12.77;;;5.10;;
64871;SDS011;51351;51.450;6.614;2024-03-23T03:04:44;6.88;;;3.58;;
64871;SDS011;51351;51.450;6.614;2024-03-23T03:07:10;5.32;;;3.20;;
64871;SDS011;51351;51.450;6.614;2024-03-23T03:09:36;5.93;;;2.90;;
64871;SDS011;51351;51.450;6.614;2024-03-23T03:12:04;4.05;;;2.75;;
64871;SDS011;51351;51.450;6.614;2024-03-23T03:14:30;5.97;;;2.50;;
64871;SDS011;51351;51.450;6.614;2024-03-23T03:16:56;9.27;;;2.60;;
64871;SDS011;51351;51.450;6.614;2024-03-23T03:19:21;4.10;;;2.88;;
64871;SDS011;51351;51.450;6.614;2024-03-23T03:21:47;4.22;;;2.05;;
64871;SDS011;51351;51.450;6.614;2024-03-23T03:24:13;4.82;;;2.67;;
64871;SDS011;51351;51.450;6.614;2024-03-23T03:26:42;6.53;;;4.65;;
64871;SDS011;51351;51.450;6.614;2024-03-23T03:29:11;5.25;;;2.78;;
64871;SDS011;51351;51.450;6.614;2024-03-23T03:31:37;5.25;;;2.80;;
64871;SDS011;51351;51.450;6.614;2024-03-23T03:34:03;9.88;;;3.05;;
64871;SDS011;51351;51.450;6.614;2024-03-23T03:36:30;5.82;;;3.13;;
64871;SDS011;51351;51.450;6.614;2024-03-23T03:43:46;4.23;;;2.20;;
64871;SDS011;51351;51.450;6.614;2024-03-23T03:46:12;5.45;;;3.10;;
64871;SDS011;51351;51.450;6.614;2024-03-23T03:48:38;9.43;;;3.28;;
64871;SDS011;51351;51.450;6.614;2024-03-23T03:55:56;7.72;;;3.13;;
64871;SDS011;51351;51.450;6.614;2024-03-23T04:03:13;5.17;;;3.00;;
64871;SDS011;51351;51.450;6.614;2024-03-23T04:05:39;8.32;;;2.67;;
64871;SDS011;51351;51.450;6.614;2024-03-23T04:08:05;3.58;;;2.63;;
64871;SDS011;51351;51.450;6.614;2024-03-23T04:10:30;6.30;;;3.45;;
64871;SDS011;51351;51.450;6.614;2024-03-23T04:12:56;9.97;;;4.23;;
64871;SDS011;51351;51.450;6.614;2024-03-23T04:15:21;10.13;;;3.65;;
64871;SDS011;51351;51.450;6.614;2024-03-23T04:17:47;9.35;;;5.13;;
64871;SDS011;51351;51.450;6.614;2024-03-23T04:20:12;9.60;;;3.22;;
64871;SDS011;51351;51.450;6.614;2024-03-23T04:22:41;6.05;;;4.22;;
64871;SDS011;51351;51.450;6.614;2024-03-23T04:25:07;11.93;;;5.28;;
64871;SDS011;51351;51.450;6.614;2024-03-23T04:27:33;4.80;;;3.72;;
64871;SDS011;51351;51.450;6.614;2024-03-23T04:29:59;6.07;;;4.43;;
64871;SDS011;51351;51.450;6.614;2024-03-23T04:32:26;6.13;;;3.75;;
64871;SDS011;51351;51.450;6.614;2024-03-23T04:34:51;10.35;;;5.63;;
64871;SDS011;51351;51.450;6.614;2024-03-23T04:37:17;12.93;;;4.57;;
64871;SDS011;51351;51.450;6.614;2024-03-23T04:39:43;7.25;;;4.07;;
64871;SDS011;51351;51.450;6.614;2024-03-23T04:42:08;5.78;;;3.35;;
64871;SDS011;51351;51.450;6.614;2024-03-23T04:44:33;10.32;;;4.90;;
64871;SDS011;51351;51.450;6.614;2024-03-23T04:47:00;8.32;;;4.05;;
64871;SDS011;51351;51.450;6.614;2024-03-23T04:49:25;6.43;;;2.75;;
64871;SDS011;51351;51.450;6.614;2024-03-23T04:51:51;6.88;;;3.63;;
64871;SDS011;51351;51.450;6.614;2024-03-23T04:54:16;9.80;;;4.70;;
64871;SDS011;51351;51.450;6.614;2024-03-23T04:56:41;6.35;;;3.85;;
64871;SDS011;51351;51.450;6.614;2024-03-23T04:59:07;8.65;;;3.97;;
64871;SDS011;51351;51.450;6.614;2024-03-23T05:01:32;10.27;;;4.20;;
64871;SDS011;51351;51.450;6.614;2024-03-23T05:04:02;5.18;;;2.95;;
64871;SDS011;51351;51.450;6.614;2024-03-23T05:06:27;8.32;;;4.38;;
64871;SDS011;51351;51.450;6.614;2024-03-23T05:08:53;12.98;;;4.40;;
64871;SDS011;51351;51.450;6.614;2024-03-23T05:11:19;9.32;;;3.75;;
64871;SDS011;51351;51.450;6.614;2024-03-23T05:13:45;6.65;;;5.00;;
64871;SDS011;51351;51.450;6.614;2024-03-23T05:16:11;10.85;;;4.30;;
64871;SDS011;51351;51.450;6.614;2024-03-23T05:18:37;11.80;;;4.30;;
64871;SDS011;51351;51.450;6.614;2024-03-23T05:21:02;10.63;;;4.57;;
64871;SDS011;51351;51.450;6.614;2024-03-23T05:23:28;7.78;;;5.65;;
64871;SDS011;51351;51.450;6.614;2024-03-23T05:25:53;7.65;;;4.15;;
64871;SDS011;51351;51.450;6.614;2024-03-23T05:28:19;11.45;;;6.43;;
64871;SDS011;51351;51.450;6.614;2024-03-23T05:30:54;10.10;;;4.55;;
64871;SDS011;51351;51.450;6.614;2024-03-23T05:33:20;11.13;;;4.95;;
64871;SDS011;51351;51.450;6.614;2024-03-23T05:35:46;6.95;;;4.95;;
64871;SDS011;51351;51.450;6.614;2024-03-23T05:38:13;8.60;;;5.20;;
64871;SDS011;51351;51.450;6.614;2024-03-23T05:40:38;8.45;;;5.07;;
64871;SDS011;51351;51.450;6.614;2024-03-23T05:43:05;8.93;;;5.15;;
64871;SDS011;51351;51.450;6.614;2024-03-23T05:45:31;8.27;;;4.90;;
64871;SDS011;51351;51.450;6.614;2024-03-23T05:47:56;11.40;;;5.57;;
64871;SDS011;51351;51.450;6.614;2024-03-23T05:50:22;5.50;;;3.08;;
64871;SDS011;51351;51.450;6.614;2024-03-23T05:52:47;15.30;;;4.65;;
64871;SDS011;51351;51.450;6.614;2024-03-23T05:55:12;10.13;;;7.20;;
64871;SDS011;51351;51.450;6.614;2024-03-23T05:57:38;8.80;;;5.22;;
64871;SDS011;51351;51.450;6.614;2024-03-23T06:00:04;6.78;;;4.72;;
64871;SDS011;51351;51.450;6.614;2024-03-23T06:02:38;12.57;;;5.05;;
64871;SDS011;51351;51.450;6.614;2024-03-23T06:05:03;12.38;;;4.93;;
64871;SDS011;51351;51.450;6.614;2024-03-23T06:07:29;11.35;;;5.00;;
64871;SDS011;51351;51.450;6.614;2024-03-23T06:09:54;6.40;;;5.32;;
64871;SDS011;51351;51.450;6.614;2024-03-23T06:12:20;6.97;;;4.88;;
64871;SDS011;51351;51.450;6.614;2024-03-23T06:14:46;8.63;;;4.93;;
64871;SDS011;51351;51.450;6.614;2024-03-23T06:17:13;12.07;;;6.50;;
64871;SDS011;51351;51.450;6.614;2024-03-23T06:19:39;9.18;;;5.90;;
64871;SDS011;51351;51.450;6.614;2024-03-23T06:22:04;9.85;;;5.80;;
64871;SDS011;51351;51.450;6.614;2024-03-23T06:24:31;14.27;;;5.38;;
64871;SDS011;51351;51.450;6.614;2024-03-23T06:26:57;13.32;;;5.05;;
64871;SDS011;51351;51.450;6.614;2024-03-23T06:29:22;9.15;;;6.75;;
64871;SDS011;51351;51.450;6.614;2024-03-23T06:31:52;14.75;;;6.63;;
64871;SDS011;51351;51.450;6.614;2024-03-23T06:34:18;14.73;;;6.88;;
64871;SDS011;51351;51.450;6.614;2024-03-23T06:36:43;8.15;;;6.55;;
64871;SDS011;51351;51.450;6.614;2024-03-23T06:39:09;9.80;;;6.25;;
64871;SDS011;51351;51.450;6.614;2024-03-23T06:41:37;18.20;;;6.80;;
64871;SDS011;51351;51.450;6.614;2024-03-23T06:44:03;11.68;;;6.28;;
64871;SDS011;51351;51.450;6.614;2024-03-23T06:46:29;11.80;;;6.40;;
64871;SDS011;51351;51.450;6.614;2024-03-23T06:48:54;12.23;;;6.43;;
64871;SDS011;51351;51.450;6.614;2024-03-23T06:51:20;13.55;;;6.05;;
64871;SDS011;51351;51.450;6.614;2024-03-23T06:53:45;16.67;;;7.13;;
64871;SDS011;51351;51.450;6.614;2024-03-23T06:56:10;15.23;;;6.53;;
64871;SDS011;51351;51.450;6.614;2024-03-23T06:58:36;11.55;;;5.68;;
64871;SDS011;51351;51.450;6.614;2024-03-23T07:01:01;12.33;;;7.87;;
64871;SDS011;51351;51.450;6.614;2024-03-23T07:03:27;10.90;;;6.63;;
64871;SDS011;51351;51.450;6.614;2024-03-23T07:05:52;12.07;;;6.93;;
64871;SDS011;51351;51.450;6.614;2024-03-23T07:08:18;13.20;;;6.40;;
64871;SDS011;51351;51.450;6.614;2024-03-23T07:10:47;11.85;;;5.07;;
64871;SDS011;51351;51.450;6.614;2024-03-23T07:13:12;13.82;;;7.72;;
64871;SDS011;51351;51.450;6.614;2024-03-23T07:15:38;13.60;;;6.00;;
64871;SDS011;51351;51.450;6.614;2024-03-23T07:18:03;14.17;;;7.10;;
64871;SDS011;51351;51.450;6.614;2024-03-23T07:20:29;9.98;;;6.63;;
64871;SDS011;51351;51.450;6.614;2024-03-23T07:22:56;19.55;;;6.53;;
64871;SDS011;51351;51.450;6.614;2024-03-23T07:25:22;15.55;;;5.80;;
64871;SDS011;51351;51.450;6.614;2024-03-23T07:27:48;13.65;;;7.13;;
64871;SDS011;51351;51.450;6.614;2024-03-23T07:30:14;13.30;;;6.45;;
64871;SDS011;51351;51.450;6.614;2024-03-23T07:32:39;15.75;;;7.38;;
64871;SDS011;51351;51.450;6.614;2024-03-23T07:35:05;9.90;;;5.35;;
64871;SDS011;51351;51.450;6.614;2024-03-23T07:37:30;10.30;;;6.20;;
64871;SDS011;51351;51.450;6.614;2024-03-23T07:39:56;10.05;;;5.43;;
64871;SDS011;51351;51.450;6.614;2024-03-23T07:42:22;8.57;;;4.85;;
64871;SDS011;51351;51.450;6.614;2024-03-23T07:44:48;13.63;;;6.07;;
64871;SDS011;51351;51.450;6.614;2024-03-23T07:47:13;9.57;;;5.93;;
64871;SDS011;51351;51.450;6.614;2024-03-23T07:49:39;9.85;;;5.53;;
64871;SDS011;51351;51.450;6.614;2024-03-23T07:52:05;11.40;;;6.47;;
64871;SDS011;51351;51.450;6.614;2024-03-23T07:54:30;10.98;;;4.20;;
64871;SDS011;51351;51.450;6.614;2024-03-23T07:56:55;11.50;;;5.07;;
64871;SDS011;51351;51.450;6.614;2024-03-23T07:59:20;8.60;;;4.25;;
64871;SDS011;51351;51.450;6.614;2024-03-23T08:01:46;8.88;;;5.00;;
64871;SDS011;51351;51.450;6.614;2024-03-23T08:04:11;8.50;;;5.97;;
64871;SDS011;51351;51.450;6.614;2024-03-23T08:06:37;12.60;;;5.10;;
64871;SDS011;51351;51.450;6.614;2024-03-23T08:09:03;9.90;;;4.22;;
64871;SDS011;51351;51.450;6.614;2024-03-23T08:11:29;10.52;;;4.47;;
64871;SDS011;51351;51.450;6.614;2024-03-23T08:13:55;10.30;;;4.35;;
64871;SDS011;51351;51.450;6.614;2024-03-23T08:16:20;8.57;;;3.92;;
64871;SDS011;51351;51.450;6.614;2024-03-23T08:18:45;8.25;;;4.20;;
64871;SDS011;51351;51.450;6.614;2024-03-23T08:21:11;8.02;;;3.67;;
64871;SDS011;51351;51.450;6.614;2024-03-23T08:23:37;11.05;;;4.18;;
64871;SDS011;51351;51.450;6.614;2024-03-23T08:26:03;3.65;;;3.30;;
64871;SDS011;51351;51.450;6.614;2024-03-23T08:28:29;7.15;;;3.50;;
64871;SDS011;51351;51.450;6.614;2024-03-23T08:30:55;8.30;;;3.60;;
64871;SDS011;51351;51.450;6.614;2024-03-23T08:33:20;6.50;;;3.40;;
64871;SDS011;51351;51.450;6.614;2024-03-23T08:35:59;3.97;;;3.10;;
64871;SDS011;51351;51.450;6.614;2024-03-23T08:38:26;5.05;;;3.10;;
64871;SDS011;51351;51.450;6.614;2024-03-23T08:43:23;7.15;;;3.60;;
64871;SDS011;51351;51.450;6.614;2024-03-23T08:45:48;4.97;;;2.83;;
64871;SDS011;51351;51.450;6.614;2024-03-23T08:48:14;4.80;;;3.00;;
64871;SDS011;51351;51.450;6.614;2024-03-23T08:50:39;5.18;;;3.17;;
64871;SDS011;51351;51.450;6.614;2024-03-23T08:53:04;3.95;;;2.72;;
64871;SDS011;51351;51.450;6.614;2024-03-23T08:55:30;9.40;;;3.65;;
64871;SDS011;51351;51.450;6.614;2024-03-23T08:57:56;6.88;;;3.33;;
64871;SDS011;51351;51.450;6.614;2024-03-23T09:00:21;6.13;;;3.80;;
64871;SDS011;51351;51.450;6.614;2024-03-23T09:02:47;8.10;;;4.00;;
64871;SDS011;51351;51.450;6.614;2024-03-23T09:05:12;4.80;;;4.22;;
64871;SDS011;51351;51.450;6.614;2024-03-23T09:07:38;8.68;;;4.60;;
64871;SDS011;51351;51.450;6.614;2024-03-23T09:10:03;5.65;;;4.65;;
64871;SDS011;51351;51.450;6.614;2024-03-23T09:12:29;10.45;;;3.60;;
64871;SDS011;51351;51.450;6.614;2024-03-23T09:14:54;7.50;;;3.80;;
64871;SDS011;51351;51.450;6.614;2024-03-23T09:17:19;5.03;;;4.20;;
64871;SDS011;51351;51.450;6.614;2024-03-23T09:19:45;7.72;;;4.50;;
64871;SDS011;51351;51.450;6.614;2024-03-23T09:22:10;11.10;;;4.03;;
64871;SDS011;51351;51.450;6.614;2024-03-23T09:24:36;7.30;;;4.47;;
64871;SDS011;51351;51.450;6.614;2024-03-23T09:27:02;7.65;;;3.65;;
64871;SDS011;51351;51.450;6.614;2024-03-23T09:29:28;5.57;;;3.30;;
64871;SDS011;51351;51.450;6.614;2024-03-23T09:31:53;7.10;;;3.38;;
64871;SDS011;51351;51.450;6.614;2024-03-23T09:34:20;7.32;;;2.67;;
64871;SDS011;51351;51.450;6.614;2024-03-23T09:36:46;6.40;;;2.67;;
64871;SDS011;51351;51.450;6.614;2024-03-23T09:39:12;10.48;;;3.45;;
64871;SDS011;51351;51.450;6.614;2024-03-23T09:41:39;10.93;;;4.43;;
64871;SDS011;51351;51.450;6.614;2024-03-23T09:44:04;4.57;;;2.58;;
64871;SDS011;51351;51.450;6.614;2024-03-23T09:46:30;4.95;;;2.60;;
64871;SDS011;51351;51.450;6.614;2024-03-23T09:49:01;4.28;;;1.90;;
64871;SDS011;51351;51.450;6.614;2024-03-23T09:51:26;4.18;;;2.67;;
64871;SDS011;51351;51.450;6.614;2024-03-23T09:53:52;11.45;;;3.83;;
64871;SDS011;51351;51.450;6.614;2024-03-23T09:56:18;3.95;;;3.03;;
64871;SDS011;51351;51.450;6.614;2024-03-23T09:58:43;3.00;;;1.95;;
64871;SDS011;51351;51.450;6.614;2024-03-23T10:01:09;8.35;;;3.53;;
64871;SDS011;51351;51.450;6.614;2024-03-23T10:03:46;5.38;;;2.80;;
64871;SDS011;51351;51.450;6.614;2024-03-23T10:06:12;6.63;;;3.72;;
64871;SDS011;51351;51.450;6.614;2024-03-23T10:08:37;7.93;;;3.80;;
64871;SDS011;51351;51.450;6.614;2024-03-23T10:11:12;8.77;;;2.65;;
64871;SDS011;51351;51.450;6.614;2024-03-23T10:13:38;3.80;;;2.38;;
64871;SDS011;51351;51.450;6.614;2024-03-23T10:16:06;6.05;;;2.17;;
64871;SDS011;51351;51.450;6.614;2024-03-23T10:18:31;5.05;;;2.72;;
64871;SDS011;51351;51.450;6.614;2024-03-23T10:23:30;6.13;;;3.17;;
64871;SDS011;51351;51.450;6.614;2024-03-23T10:26:00;3.78;;;1.85;;
64871;SDS011;51351;51.450;6.614;2024-03-23T10:28:37;3.80;;;2.20;;
64871;SDS011;51351;51.450;6.614;2024-03-23T10:31:08;2.50;;;2.03;;
64871;SDS011;51351;51.450;6.614;2024-03-23T10:33:36;6.55;;;2.63;;
64871;SDS011;51351;51.450;6.614;2024-03-23T10:36:01;2.20;;;1.60;;
64871;SDS011;51351;51.450;6.614;2024-03-23T10:38:27;3.15;;;2.95;;
64871;SDS011;51351;51.450;6.614;2024-03-23T10:40:54;2.30;;;1.60;;
64871;SDS011;51351;51.450;6.614;2024-03-23T10:43:19;2.42;;;1.67;;
64871;SDS011;51351;51.450;6.614;2024-03-23T10:45:45;4.13;;;2.42;;
64871;SDS011;51351;51.450;6.614;2024-03-23T10:48:10;3.67;;;3.38;;
64871;SDS011;51351;51.450;6.614;2024-03-23T10:50:35;3.17;;;2.57;;
64871;SDS011;51351;51.450;6.614;2024-03-23T10:53:01;2.75;;;1.42;;
64871;SDS011;51351;51.450;6.614;2024-03-23T10:55:27;3.28;;;2.20;;
64871;SDS011;51351;51.450;6.614;2024-03-23T10:57:54;4.97;;;2.35;;
64871;SDS011;51351;51.450;6.614;2024-03-23T11:00:19;3.13;;;2.88;;
64871;SDS011;51351;51.450;6.614;2024-03-23T11:02:47;2.63;;;2.42;;
64871;SDS011;51351;51.450;6.614;2024-03-23T11:05:31;7.75;;;3.25;;
64871;SDS011;51351;51.450;6.614;2024-03-23T11:07:57;4.38;;;3.17;;
64871;SDS011;51351;51.450;6.614;2024-03-23T11:10:31;2.28;;;2.08;;
64871;SDS011;51351;51.450;6.614;2024-03-23T11:12:58;2.83;;;2.15;;
64871;SDS011;51351;51.450;6.614;2024-03-23T11:15:23;8.82;;;2.97;;
64871;SDS011;51351;51.450;6.614;2024-03-23T11:18:06;5.15;;;2.95;;
64871;SDS011;51351;51.450;6.614;2024-03-23T11:20:33;7.10;;;3.28;;
64871;SDS011;51351;51.450;6.614;2024-03-23T11:22:59;5.70;;;3.88;;
64871;SDS011;51351;51.450;6.614;2024-03-23T11:25:25;6.40;;;3.95;;
64871;SDS011;51351;51.450;6.614;2024-03-23T11:27:51;2.20;;;2.05;;
64871;SDS011;51351;51.450;6.614;2024-03-23T11:30:20;6.63;;;3.28;;
64871;SDS011;51351;51.450;6.614;2024-03-23T11:32:50;8.93;;;3.25;;
64871;SDS011;51351;51.450;6.614;2024-03-23T11:43:03;3.97;;;2.40;;
64871;SDS011;51351;51.450;6.614;2024-03-23T11:45:29;3.72;;;2.00;;
64871;SDS011;51351;51.450;6.614;2024-03-23T11:48:05;3.65;;;1.85;;
64871;SDS011;51351;51.450;6.614;2024-03-23T11:50:30;2.33;;;1.65;;
64871;SDS011;51351;51.450;6.614;2024-03-23T11:56:00;5.40;;;2.47;;
64871;SDS011;51351;51.450;6.614;2024-03-23T11:58:27;2.35;;;1.15;;
64871;SDS011;51351;51.450;6.614;2024-03-23T12:01:02;3.53;;;2.47;;
64871;SDS011;51351;51.450;6.614;2024-03-23T12:03:28;2.95;;;1.58;;
64871;SDS011;51351;51.450;6.614;2024-03-23T12:06:01;2.42;;;1.90;;
64871;SDS011;51351;51.450;6.614;2024-03-23T12:08:33;2.28;;;1.95;;
64871;SDS011;51351;51.450;6.614;2024-03-23T12:13:30;3.65;;;2.28;;
64871;SDS011;51351;51.450;6.614;2024-03-23T12:15:58;2.38;;;2.03;;
64871;SDS011;51351;51.450;6.614;2024-03-23T12:18:33;2.95;;;2.50;;
64871;SDS011;51351;51.450;6.614;2024-03-23T12:20:58;2.65;;;2.15;;
64871;SDS011;51351;51.450;6.614;2024-03-23T12:23:24;5.63;;;2.40;;
64871;SDS011;51351;51.450;6.614;2024-03-23T12:25:49;1.90;;;1.50;;
64871;SDS011;51351;51.450;6.614;2024-03-23T12:28:15;2.38;;;2.17;;
64871;SDS011;51351;51.450;6.614;2024-03-23T12:30:40;3.50;;;3.22;;
64871;SDS011;51351;51.450;6.614;2024-03-23T12:33:06;5.28;;;2.35;;
64871;SDS011;51351;51.450;6.614;2024-03-23T12:35:31;4.68;;;1.60;;
64871;SDS011;51351;51.450;6.614;2024-03-23T12:37:57;5.95;;;3.33;;
64871;SDS011;51351;51.450;6.614;2024-03-23T12:40:22;2.97;;;1.40;;
64871;SDS011;51351;51.450;6.614;2024-03-23T12:42:48;4.10;;;2.45;;
64871;SDS011;51351;51.450;6.614;2024-03-23T12:45:13;2.17;;;1.98;;
64871;SDS011;51351;51.450;6.614;2024-03-23T12:47:38;1.55;;;1.45;;
64871;SDS011;51351;51.450;6.614;2024-03-23T12:50:04;1.85;;;1.75;;
64871;SDS011;51351;51.450;6.614;2024-03-23T12:52:30;2.35;;;1.42;;
64871;SDS011;51351;51.450;6.614;2024-03-23T12:54:56;3.58;;;2.28;;
64871;SDS011;51351;51.450;6.614;2024-03-23T12:57:22;2.40;;;1.58;;
64871;SDS011;51351;51.450;6.614;2024-03-23T12:59:48;2.25;;;2.05;;
64871;SDS011;51351;51.450;6.614;2024-03-23T13:02:16;3.63;;;2.25;;
64871;SDS011;51351;51.450;6.614;2024-03-23T13:04:41;2.58;;;2.38;;
64871;SDS011;51351;51.450;6.614;2024-03-23T13:07:07;2.47;;;2.08;;
64871;SDS011;51351;51.450;6.614;2024-03-23T13:09:32;4.63;;;2.60;;
64871;SDS011;51351;51.450;6.614;2024-03-23T13:11:57;5.32;;;2.28;;
64871;SDS011;51351;51.450;6.614;2024-03-23T13:14:23;2.42;;;1.50;;
64871;SDS011;51351;51.450;6.614;2024-03-23T13:16:48;1.92;;;1.75;;
64871;SDS011;51351;51.450;6.614;2024-03-23T13:19:14;4.88;;;4.00;;
64871;SDS011;51351;51.450;6.614;2024-03-23T13:21:39;2.42;;;1.42;;
64871;SDS011;51351;51.450;6.614;2024-03-23T13:24:05;1.95;;;0.90;;
64871;SDS011;51351;51.450;6.614;2024-03-23T13:26:30;3.08;;;1.70;;
64871;SDS011;51351;51.450;6.614;2024-03-23T13:28:55;3.95;;;3.25;;
64871;SDS011;51351;51.450;6.614;2024-03-23T13:31:21;2.53;;;2.33;;
64871;SDS011;51351;51.450;6.614;2024-03-23T13:33:46;2.15;;;2.05;;
64871;SDS011;51351;51.450;6.614;2024-03-23T13:36:11;1.88;;;1.63;;
64871;SDS011;51351;51.450;6.614;2024-03-23T13:38:37;3.38;;;1.25;;
64871;SDS011;51351;51.450;6.614;2024-03-23T13:41:02;2.55;;;2.38;;
64871;SDS011;51351;51.450;6.614;2024-03-23T13:43:29;1.15;;;0.82;;
64871;SDS011;51351;51.450;6.614;2024-03-23T13:45:58;2.13;;;1.55;;
64871;SDS011;51351;51.450;6.614;2024-03-23T13:48:24;1.98;;;1.88;;
64871;SDS011;51351;51.450;6.614;2024-03-23T13:50:56;1.95;;;1.85;;
64871;SDS011;51351;51.450;6.614;2024-03-23T13:53:21;1.75;;;1.65;;
64871;SDS011;51351;51.450;6.614;2024-03-23T13:55:48;3.30;;;1.02;;
64871;SDS011;51351;51.450;6.614;2024-03-23T13:58:14;2.20;;;2.00;;
64871;SDS011;51351;51.450;6.614;2024-03-23T14:00:40;3.00;;;1.88;;
64871;SDS011;51351;51.450;6.614;2024-03-23T14:03:05;4.53;;;0.80;;
64871;SDS011;51351;51.450;6.614;2024-03-23T14:05:30;3.83;;;1.65;;
64871;SDS011;51351;51.450;6.614;2024-03-23T14:07:56;2.78;;;2.22;;
64871;SDS011;51351;51.450;6.614;2024-03-23T14:10:21;2.25;;;2.15;;
64871;SDS011;51351;51.450;6.614;2024-03-23T14:12:46;1.83;;;1.73;;
64871;SDS011;51351;51.450;6.614;2024-03-23T14:15:12;1.77;;;1.67;;
64871;SDS011;51351;51.450;6.614;2024-03-23T14:17:37;2.05;;;1.83;;
64871;SDS011;51351;51.450;6.614;2024-03-23T14:20:04;2.72;;;2.53;;
64871;SDS011;51351;51.450;6.614;2024-03-23T14:22:30;2.08;;;1.88;;
64871;SDS011;51351;51.450;6.614;2024-03-23T14:24:56;6.40;;;1.77;;
64871;SDS011;51351;51.450;6.614;2024-03-23T14:27:21;2.40;;;2.30;;
64871;SDS011;51351;51.450;6.614;2024-03-23T14:29:49;2.53;;;1.73;;
64871;SDS011;51351;51.450;6.614;2024-03-23T14:32:15;2.05;;;1.85;;
64871;SDS011;51351;51.450;6.614;2024-03-23T14:34:40;4.55;;;3.30;;
64871;SDS011;51351;51.450;6.614;2024-03-23T14:37:06;1.60;;;0.90;;
64871;SDS011;51351;51.450;6.614;2024-03-23T14:39:31;2.97;;;1.90;;
64871;SDS011;51351;51.450;6.614;2024-03-23T14:41:59;1.92;;;1.77;;
64871;SDS011;51351;51.450;6.614;2024-03-23T14:44:24;3.35;;;1.20;;
64871;SDS011;51351;51.450;6.614;2024-03-23T14:46:50;3.58;;;2.90;;
64871;SDS011;51351;51.450;6.614;2024-03-23T14:49:15;3.03;;;1.83;;
64871;SDS011;51351;51.450;6.614;2024-03-23T14:51:43;5.90;;;3.85;;
64871;SDS011;51351;51.450;6.614;2024-03-23T14:54:08;6.28;;;2.30;;
64871;SDS011;51351;51.450;6.614;2024-03-23T14:56:34;3.38;;;1.48;;
64871;SDS011;51351;51.450;6.614;2024-03-23T14:59:00;2.50;;;1.83;;
64871;SDS011;51351;51.450;6.614;2024-03-23T15:01:25;2.22;;;2.03;;
64871;SDS011;51351;51.450;6.614;2024-03-23T15:03:50;2.15;;;1.77;;
64871;SDS011;51351;51.450;6.614;2024-03-23T15:06:18;2.28;;;2.08;;
64871;SDS011;51351;51.450;6.614;2024-03-23T15:08:43;2.43;;;1.87;;
64871;SDS011;51351;51.450;6.614;2024-03-23T15:11:09;1.73;;;1.60;;
64871;SDS011;51351;51.450;6.614;2024-03-23T15:13:34;2.55;;;2.25;;
64871;SDS011;51351;51.450;6.614;2024-03-23T15:16:01;2.20;;;1.52;;
64871;SDS011;51351;51.450;6.614;2024-03-23T15:18:28;3.22;;;3.00;;
64871;SDS011;51351;51.450;6.614;2024-03-23T15:20:55;3.65;;;3.35;;
64871;SDS011;51351;51.450;6.614;2024-03-23T15:23:21;4.90;;;2.63;;
64871;SDS011;51351;51.450;6.614;2024-03-23T15:25:53;3.72;;;2.45;;
64871;SDS011;51351;51.450;6.614;2024-03-23T15:28:18;2.83;;;2.13;;
64871;SDS011;51351;51.450;6.614;2024-03-23T15:30:44;2.00;;;1.63;;
64871;SDS011;51351;51.450;6.614;2024-03-23T15:33:09;6.22;;;2.92;;
64871;SDS011;51351;51.450;6.614;2024-03-23T15:35:34;3.20;;;2.50;;
64871;SDS011;51351;51.450;6.614;2024-03-23T15:38:00;2.92;;;2.78;;
64871;SDS011;51351;51.450;6.614;2024-03-23T15:40:25;3.15;;;1.77;;
64871;SDS011;51351;51.450;6.614;2024-03-23T15:42:50;2.58;;;2.38;;
64871;SDS011;51351;51.450;6.614;2024-03-23T15:45:16;2.30;;;1.35;;
64871;SDS011;51351;51.450;6.614;2024-03-23T15:47:41;3.17;;;2.42;;
64871;SDS011;51351;51.450;6.614;2024-03-23T15:50:07;4.13;;;1.88;;
64871;SDS011;51351;51.450;6.614;2024-03-23T15:52:36;3.33;;;3.03;;
64871;SDS011;51351;51.450;6.614;2024-03-23T15:55:03;3.20;;;2.20;;
64871;SDS011;51351;51.450;6.614;2024-03-23T15:57:31;4.18;;;2.65;;
64871;SDS011;51351;51.450;6.614;2024-03-23T15:59:57;3.15;;;2.13;;
64871;SDS011;51351;51.450;6.614;2024-03-23T16:02:22;2.60;;;1.77;;
64871;SDS011;51351;51.450;6.614;2024-03-23T16:04:47;2.45;;;1.90;;
64871;SDS011;51351;51.450;6.614;2024-03-23T16:07:12;3.20;;;1.70;;
64871;SDS011;51351;51.450;6.614;2024-03-23T16:09:38;2.80;;;1.85;;
64871;SDS011;51351;51.450;6.614;2024-03-23T16:12:04;2.63;;;2.47;;